createdAt,value
2019-01-30T00:02:24.824Z,99603.86
2019-01-30T00:04:55.325Z,99607.41
2019-01-30T00:07:26.600Z,99609.50
2019-01-30T00:09:57.201Z,99611.42
2019-01-30T00:12:27.730Z,99598.38
2019-01-30T00:14:57.910Z,99599.69
2019-01-30T00:17:28.610Z,99607.02
2019-01-30T00:19:58.974Z,99606.09
2019-01-30T00:22:29.337Z,99595.36
2019-01-30T00:24:59.651Z,99597.37
2019-01-30T00:27:29.919Z,99595.21
2019-01-30T00:30:04.100Z,99596.52
2019-01-30T00:32:32.478Z,99594.44
2019-01-30T00:35:02.973Z,99596.67
2019-01-30T00:37:33.502Z,99596.14
2019-01-30T00:40:07.795Z,99595.21
2019-01-30T00:42:38.142Z,99595.75
2019-01-30T00:45:10.618Z,99590.42
2019-01-30T00:47:40.870Z,99592.13
2019-01-30T00:50:14.362Z,99580.49
2019-01-30T00:52:44.925Z,99579.50
2019-01-30T00:55:15.457Z,99581.87
2019-01-30T00:57:45.704Z,99571.84
2019-01-30T01:00:18.614Z,99571.84
2019-01-30T01:02:48.848Z,99578.96
2019-01-30T01:05:19.104Z,99574.95
2019-01-30T01:07:49.320Z,99573.33
2019-01-30T01:10:20.575Z,99569.63
2019-01-30T01:12:51.019Z,99570.62
2019-01-30T01:15:22.254Z,99571.70
2019-01-30T01:17:53.081Z,99569.08
2019-01-30T01:20:23.919Z,99562.83
2019-01-30T01:22:54.677Z,99564.53
2019-01-30T01:25:25.989Z,99559.98
2019-01-30T01:27:56.364Z,99565.69
2019-01-30T01:30:27.362Z,99562.41
2019-01-30T01:32:57.553Z,99561.88
2019-01-30T01:35:28.130Z,99564.11
2019-01-30T01:37:58.437Z,99557.16
2019-01-30T01:40:28.696Z,99546.28
2019-01-30T01:43:00.004Z,99546.28
2019-01-30T01:45:30.230Z,99547.29
2019-01-30T01:48:00.663Z,99543.31
2019-01-30T01:50:31.092Z,99547.70
2019-01-30T01:53:02.920Z,99539.84
2019-01-30T01:55:33.152Z,99544.16
2019-01-30T01:58:03.502Z,99531.70
2019-01-30T02:00:36.791Z,99536.09
2019-01-30T02:03:07.259Z,99542.34
2019-01-30T02:05:37.583Z,99540.49
2019-01-30T02:08:07.773Z,99538.56
2019-01-30T02:10:38.334Z,99523.94
2019-01-30T02:13:08.901Z,99523.94
2019-01-30T02:15:39.248Z,99530.80
2019-01-30T02:18:09.784Z,99535.98
2019-01-30T02:20:41.573Z,99535.67
2019-01-30T02:23:11.896Z,99535.98
2019-01-30T02:25:42.173Z,99532.00
2019-01-30T02:28:14.393Z,99525.06
2019-01-30T02:30:47.945Z,99525.48
2019-01-30T02:33:18.162Z,99523.20
2019-01-30T02:35:48.691Z,99528.45
2019-01-30T02:38:18.967Z,99522.94
2019-01-30T02:40:49.225Z,99516.06
2019-01-30T02:43:19.506Z,99526.88
2019-01-30T02:45:49.727Z,99521.23
2019-01-30T02:48:19.991Z,99528.45
2019-01-30T02:50:50.776Z,99529.30
2019-01-30T02:53:20.995Z,99527.76
2019-01-30T02:55:51.357Z,99531.77
2019-01-30T02:58:21.632Z,99531.77
2019-01-30T03:00:58.802Z,99527.14
2019-01-30T03:03:24.095Z,99524.52
2019-01-30T03:05:54.379Z,99529.77
2019-01-30T03:08:24.711Z,99521.55
2019-01-30T03:10:54.917Z,99528.49
2019-01-30T03:13:25.652Z,99521.31
2019-01-30T03:15:57.078Z,99520.78
2019-01-30T03:18:27.334Z,99523.63
2019-01-30T03:20:57.621Z,99516.53
2019-01-30T03:23:28.180Z,99513.91
2019-01-30T03:25:58.447Z,99512.13
2019-01-30T03:28:28.724Z,99514.30
2019-01-30T03:31:15.634Z,99514.41
2019-01-30T03:33:31.185Z,99514.41
2019-01-30T03:36:01.595Z,99514.83
2019-01-30T03:38:31.921Z,99505.84
2019-01-30T03:41:02.141Z,99509.58
2019-01-30T03:43:32.638Z,99502.91
2019-01-30T03:46:02.943Z,99506.53
2019-01-30T03:48:33.298Z,99501.75
2019-01-30T03:51:03.536Z,99498.31
2019-01-30T03:53:33.731Z,99492.92
2019-01-30T03:56:04.023Z,99491.22
2019-01-30T03:58:34.329Z,99496.31
2019-01-30T04:01:04.834Z,99498.44
2019-01-30T04:03:35.231Z,99492.92
2019-01-30T04:06:05.609Z,99499.24
2019-01-30T04:08:35.824Z,99498.55
2019-01-30T04:11:06.154Z,99498.05
2019-01-30T04:13:36.786Z,99495.69
2019-01-30T04:16:07.002Z,99496.16
2019-01-30T04:18:37.465Z,99496.16
2019-01-30T04:21:08.197Z,99500.78
2019-01-30T04:23:38.526Z,99493.19
2019-01-30T04:26:08.732Z,99501.95
2019-01-30T04:28:39.067Z,99498.55
2019-01-30T04:31:09.410Z,99491.33
2019-01-30T04:33:39.677Z,99495.66
2019-01-30T04:36:09.898Z,99498.51
2019-01-30T04:38:40.183Z,99493.88
2019-01-30T04:41:10.417Z,99497.20
2019-01-30T04:43:40.936Z,99496.63
2019-01-30T04:46:11.236Z,99486.86
2019-01-30T04:48:42.564Z,99486.86
2019-01-30T04:51:12.868Z,99492.22
2019-01-30T04:53:43.237Z,99497.55
2019-01-30T04:56:13.750Z,99496.39
2019-01-30T04:58:44.425Z,99478.38
2019-01-30T05:01:15.006Z,99485.09
2019-01-30T05:03:45.195Z,99485.09
2019-01-30T05:06:15.903Z,99481.53
2019-01-30T05:08:46.140Z,99480.46
2019-01-30T05:11:16.371Z,99476.86
2019-01-30T05:13:47.623Z,99480.80
2019-01-30T05:16:18.361Z,99466.49
2019-01-30T05:18:48.859Z,99483.77
2019-01-30T05:21:19.768Z,99480.73
2019-01-30T05:23:50.052Z,99479.80
2019-01-30T05:26:20.502Z,99474.83
2019-01-30T05:28:51.175Z,99474.83
2019-01-30T05:31:22.728Z,99474.70
2019-01-30T05:33:52.952Z,99475.48
2019-01-30T05:36:23.436Z,99470.23
2019-01-30T05:38:54.651Z,99476.02
2019-01-30T05:41:24.875Z,99476.02
2019-01-30T05:43:55.405Z,99471.43
2019-01-30T05:46:25.701Z,99474.98
2019-01-30T05:48:56.253Z,99461.55
2019-01-30T05:51:26.795Z,99466.80
2019-01-30T05:53:57.010Z,99466.65
2019-01-30T05:56:27.237Z,99462.83
2019-01-30T05:58:57.479Z,99459.89
2019-01-30T06:01:28.092Z,99455.23
2019-01-30T06:03:58.319Z,99458.20
2019-01-30T06:06:28.687Z,99458.20
2019-01-30T06:08:58.966Z,99461.91
2019-01-30T06:11:29.290Z,99451.18
2019-01-30T06:13:59.863Z,99451.18
2019-01-30T06:16:30.146Z,99464.32
2019-01-30T06:19:00.447Z,99471.27
2019-01-30T06:21:30.754Z,99471.07
2019-01-30T06:24:01.093Z,99472.89
2019-01-30T06:26:31.575Z,99472.89
2019-01-30T06:29:02.161Z,99466.83
2019-01-30T06:31:32.752Z,99470.95
2019-01-30T06:34:03.023Z,99474.69
2019-01-30T06:36:33.312Z,99471.14
2019-01-30T06:39:05.099Z,99475.05
2019-01-30T06:41:35.444Z,99474.78
2019-01-30T06:44:05.768Z,99475.79
2019-01-30T06:46:36.047Z,99477.45
2019-01-30T06:49:06.730Z,99482.65
2019-01-30T06:51:37.536Z,99476.83
2019-01-30T06:54:08.219Z,99477.06
2019-01-30T06:56:38.403Z,99481.65
2019-01-30T06:59:09.841Z,99483.19
2019-01-30T07:01:40.734Z,99483.19
2019-01-30T07:04:11.599Z,99478.10
2019-01-30T07:06:41.829Z,99483.89
2019-01-30T07:09:12.345Z,99476.02
2019-01-30T07:11:42.678Z,99484.27
2019-01-30T07:14:14.486Z,99485.28
2019-01-30T07:16:45.504Z,99489.02
2019-01-30T07:19:15.836Z,99486.31
2019-01-30T07:21:46.375Z,99493.27
2019-01-30T07:24:16.971Z,99490.91
2019-01-30T07:26:47.408Z,99493.07
2019-01-30T07:29:17.907Z,99493.84
2019-01-30T07:31:48.290Z,99499.70
2019-01-30T07:34:18.506Z,99494.66
2019-01-30T07:36:48.781Z,99490.02
2019-01-30T07:39:19.129Z,99496.04
2019-01-30T07:41:49.535Z,99498.05
2019-01-30T07:44:20.732Z,99498.16
2019-01-30T07:46:51.438Z,99494.53
2019-01-30T07:49:21.687Z,99503.95
2019-01-30T07:51:51.944Z,99502.97
2019-01-30T07:54:22.103Z,99507.50
2019-01-30T07:56:54.394Z,99508.84
2019-01-30T07:59:24.616Z,99506.91
2019-01-30T08:01:54.811Z,99513.42
2019-01-30T08:04:25.234Z,99508.09
2019-01-30T08:06:55.424Z,99507.94
2019-01-30T08:09:25.873Z,99507.55
2019-01-30T08:11:56.241Z,99510.17
2019-01-30T08:14:27.527Z,99512.20
2019-01-30T08:16:57.807Z,99519.03
2019-01-30T08:19:28.175Z,99520.41
2019-01-30T08:21:58.546Z,99516.18
2019-01-30T08:24:28.891Z,99513.30
2019-01-30T08:26:59.559Z,99514.32
2019-01-30T08:29:30.109Z,99519.41
2019-01-30T08:32:01.248Z,99524.38
2019-01-30T08:34:31.410Z,99517.81
2019-01-30T08:37:01.683Z,99523.28
2019-01-30T08:39:32.125Z,99516.80
2019-01-30T08:42:02.408Z,99522.61
2019-01-30T08:44:32.841Z,99518.33
2019-01-30T08:47:04.179Z,99511.26
2019-01-30T08:49:34.509Z,99515.20
2019-01-30T08:52:04.863Z,99518.13
2019-01-30T08:54:35.062Z,99512.38
2019-01-30T08:57:05.437Z,99513.17
2019-01-30T08:59:35.660Z,99508.13
2019-01-30T09:02:06.510Z,99510.92
2019-01-30T09:04:36.707Z,99512.90
2019-01-30T09:07:06.872Z,99513.77
2019-01-30T09:09:37.722Z,99512.06
2019-01-30T09:12:07.989Z,99512.33
2019-01-30T09:14:38.264Z,99510.95
2019-01-30T09:17:08.868Z,99516.78
2019-01-30T09:19:39.015Z,99515.47
2019-01-30T09:22:09.499Z,99517.23
2019-01-30T09:24:41.095Z,99518.48
2019-01-30T09:27:11.274Z,99518.70
2019-01-30T09:29:41.741Z,99516.02
2019-01-30T09:32:12.112Z,99518.81
2019-01-30T09:34:42.298Z,99515.52
2019-01-30T09:37:12.726Z,99516.52
2019-01-30T09:39:43.711Z,99510.56
2019-01-30T09:42:14.038Z,99512.89
2019-01-30T09:44:44.695Z,99507.72
2019-01-30T09:47:15.122Z,99511.67
2019-01-30T09:49:45.781Z,99509.65
2019-01-30T09:52:26.485Z,99505.37
2019-01-30T09:54:49.593Z,99503.63
2019-01-30T09:57:20.426Z,99507.97
2019-01-30T09:59:50.881Z,99509.38
2019-01-30T10:02:21.365Z,99509.30
2019-01-30T10:04:51.941Z,99510.87
2019-01-30T10:07:22.779Z,99507.66
2019-01-30T10:09:53.925Z,99502.77
2019-01-30T10:12:24.108Z,99498.69
2019-01-30T10:14:54.492Z,99502.20
2019-01-30T10:17:25.232Z,99500.95
2019-01-30T10:19:55.736Z,99498.92
2019-01-30T10:22:27.080Z,99500.55
2019-01-30T10:24:57.320Z,99504.23
2019-01-30T10:27:27.619Z,99502.33
2019-01-30T10:29:58.838Z,99502.01
2019-01-30T10:32:29.283Z,99495.87
2019-01-30T10:34:59.666Z,99504.53
2019-01-30T10:37:29.945Z,99496.27
2019-01-30T10:40:00.376Z,99491.58
2019-01-30T10:42:33.192Z,99495.37
2019-01-30T10:45:03.400Z,99485.06
2019-01-30T10:47:33.828Z,99481.79
2019-01-30T10:50:04.468Z,99481.22
2019-01-30T10:52:34.672Z,99480.48
2019-01-30T10:55:06.776Z,99476.83
2019-01-30T10:57:37.482Z,99474.09
2019-01-30T11:00:12.517Z,99481.04
2019-01-30T11:02:42.729Z,99479.90
2019-01-30T11:05:13.522Z,99472.19
2019-01-30T11:07:43.717Z,99472.20
2019-01-30T11:10:15.369Z,99474.63
2019-01-30T11:12:45.726Z,99467.66
2019-01-30T11:15:17.921Z,99473.61
2019-01-30T11:17:48.688Z,99470.48
2019-01-30T11:20:22.093Z,99470.69
2019-01-30T11:22:53.604Z,99465.76
2019-01-30T11:25:26.917Z,99457.85
2019-01-30T11:27:58.555Z,99457.12
2019-01-30T11:30:29.074Z,99451.35
2019-01-30T11:32:59.727Z,99452.58
2019-01-30T11:35:30.017Z,99450.63
2019-01-30T11:38:00.282Z,99449.38
2019-01-30T11:40:30.930Z,99441.83
2019-01-30T11:43:01.265Z,99446.38
2019-01-30T11:45:36.945Z,99442.70
2019-01-30T11:48:08.074Z,99442.41
2019-01-30T11:50:39.944Z,99438.47
2019-01-30T11:53:11.296Z,99432.60
2019-01-30T11:55:41.786Z,99428.38
2019-01-30T11:58:13.236Z,99426.03
2019-01-30T12:01:03.389Z,99428.84
2019-01-30T12:03:34.227Z,99423.59
2019-01-30T12:06:04.874Z,99418.69
2019-01-30T12:08:35.607Z,99416.59
2019-01-30T12:11:06.319Z,99410.64
2019-01-30T12:13:36.695Z,99407.16
2019-01-30T12:16:07.046Z,99397.58
2019-01-30T12:18:37.609Z,99398.89
2019-01-30T12:21:08.025Z,99401.05
2019-01-30T12:23:39.427Z,99397.19
2019-01-30T12:26:10.136Z,99403.52
2019-01-30T12:28:40.545Z,99388.53
2019-01-30T12:31:10.855Z,99386.66
2019-01-30T12:33:42.444Z,99379.12
2019-01-30T12:36:12.900Z,99381.17
2019-01-30T12:38:43.097Z,99381.64
2019-01-30T12:41:14.444Z,99383.34
2019-01-30T12:43:45.363Z,99384.76
2019-01-30T12:46:17.185Z,99375.53
2019-01-30T12:48:48.952Z,99376.75
2019-01-30T12:51:19.400Z,99372.69
2019-01-30T12:53:49.677Z,99379.66
2019-01-30T12:56:20.482Z,99366.66
2019-01-30T12:58:51.080Z,99367.81
2019-01-30T13:01:24.816Z,99365.75
2019-01-30T13:03:59.574Z,99361.59
2019-01-30T13:06:30.426Z,99367.06
2019-01-30T13:09:00.999Z,99358.39
2019-01-30T13:11:31.421Z,99358.22
2019-01-30T13:14:01.933Z,99348.89
2019-01-30T13:16:32.398Z,99350.84
2019-01-30T13:19:03.659Z,99349.94
2019-01-30T13:21:34.297Z,99359.23
2019-01-30T13:24:05.211Z,99352.46
2019-01-30T13:26:35.521Z,99354.83
2019-01-30T13:29:06.037Z,99356.13
2019-01-30T13:31:36.443Z,99347.30
2019-01-30T13:34:07.331Z,99339.29
2019-01-30T13:36:40.130Z,99357.64
2019-01-30T13:39:11.154Z,99334.09
2019-01-30T13:41:41.595Z,99337.66
2019-01-30T13:44:11.904Z,99335.03
2019-01-30T13:46:42.789Z,99338.99
2019-01-30T13:49:13.621Z,99340.30
2019-01-30T13:51:51.144Z,99332.41
2019-01-30T13:54:21.446Z,99327.49
2019-01-30T13:56:51.970Z,99326.17
2019-01-30T13:59:22.361Z,99335.78
2019-01-30T14:01:52.766Z,99330.15
2019-01-30T14:04:23.111Z,99337.11
2019-01-30T14:06:53.989Z,99331.07
2019-01-30T14:09:24.270Z,99338.03
2019-01-30T14:11:54.601Z,99327.14
2019-01-30T14:14:24.927Z,99327.78
2019-01-30T14:16:55.316Z,99329.09
2019-01-30T14:19:25.651Z,99326.27
2019-01-30T14:21:56.792Z,99326.55
2019-01-30T14:24:27.331Z,99318.09
2019-01-30T14:26:58.212Z,99324.50
2019-01-30T14:29:28.638Z,99322.52
2019-01-30T14:31:58.928Z,99319.39
2019-01-30T14:34:29.313Z,99324.48
2019-01-30T14:37:00.345Z,99324.66
2019-01-30T14:39:30.944Z,99315.44
2019-01-30T14:42:03.411Z,99323.72
2019-01-30T14:44:33.847Z,99324.95
2019-01-30T14:47:04.205Z,99308.39
2019-01-30T14:49:34.913Z,99319.22
2019-01-30T14:52:05.528Z,99313.92
2019-01-30T14:54:35.838Z,99311.11
2019-01-30T14:57:06.201Z,99320.70
2019-01-30T14:59:36.603Z,99324.27
2019-01-30T15:02:06.890Z,99312.95
2019-01-30T15:04:37.193Z,99313.83
2019-01-30T15:07:10.380Z,99309.22
2019-01-30T15:09:43.128Z,99310.05
2019-01-30T15:12:17.915Z,99312.87
2019-01-30T15:14:48.089Z,99311.24
2019-01-30T15:17:19.746Z,99306.25
2019-01-30T15:19:49.993Z,99305.13
2019-01-30T15:22:20.276Z,99299.02
2019-01-30T15:24:51.677Z,99294.95
2019-01-30T15:27:22.942Z,99299.55
2019-01-30T15:29:53.168Z,99302.38
2019-01-30T15:32:25.779Z,99305.10
2019-01-30T15:34:57.552Z,99309.62
2019-01-30T15:37:27.901Z,99295.42
2019-01-30T15:39:58.402Z,99305.20
2019-01-30T15:42:28.714Z,99293.70
2019-01-30T15:44:58.964Z,99290.91
2019-01-30T15:47:31.678Z,99291.91
2019-01-30T15:50:03.016Z,99295.48
2019-01-30T15:52:33.612Z,99297.27
2019-01-30T15:55:04.406Z,99290.47
2019-01-30T15:57:34.788Z,99286.36
2019-01-30T16:00:08.340Z,99288.97
2019-01-30T16:02:38.696Z,99288.21
2019-01-30T16:05:10.103Z,99285.48
2019-01-30T16:07:40.511Z,99280.00
2019-01-30T16:10:12.216Z,99286.67
2019-01-30T16:12:43.359Z,99281.03
2019-01-30T16:15:20.119Z,99284.61
2019-01-30T16:17:50.596Z,99284.80
2019-01-30T16:20:21.036Z,99281.79
2019-01-30T16:22:51.885Z,99276.15
2019-01-30T16:25:22.235Z,99281.41
2019-01-30T16:27:52.496Z,99285.92
2019-01-30T16:30:23.412Z,99281.41
2019-01-30T16:32:54.450Z,99287.14
2019-01-30T16:35:26.930Z,99281.19
2019-01-30T16:37:58.579Z,99284.56
2019-01-30T16:40:29.977Z,99284.94
2019-01-30T16:43:00.275Z,99277.14
2019-01-30T16:45:31.668Z,99281.37
2019-01-30T16:48:02.046Z,99283.25
2019-01-30T16:50:34.445Z,99279.30
2019-01-30T16:53:07.476Z,99284.80
2019-01-30T16:55:38.184Z,99278.03
2019-01-30T16:58:10.026Z,99280.47
2019-01-30T17:00:41.046Z,99276.52
2019-01-30T17:03:11.623Z,99287.80
2019-01-30T17:05:42.932Z,99278.50
2019-01-30T17:08:15.293Z,99285.55
2019-01-30T17:10:45.818Z,99288.17
2019-01-30T17:13:16.151Z,99295.31
2019-01-30T17:15:47.802Z,99294.56
2019-01-30T17:18:18.685Z,99292.50
2019-01-30T17:20:50.209Z,99298.52
2019-01-30T17:23:21.444Z,99294.94
2019-01-30T17:25:51.828Z,99290.47
2019-01-30T17:28:23.384Z,99284.42
2019-01-30T17:31:09.716Z,99300.15
2019-01-30T17:33:40.218Z,99295.73
2019-01-30T17:36:18.176Z,99296.02
2019-01-30T17:38:43.962Z,99297.42
2019-01-30T17:41:14.736Z,99301.00
2019-01-30T17:43:45.146Z,99292.73
2019-01-30T17:46:15.453Z,99292.53
2019-01-30T17:48:48.797Z,99288.59
2019-01-30T17:51:23.242Z,99299.92
2019-01-30T17:53:55.251Z,99290.06
2019-01-30T17:56:26.270Z,99297.05
2019-01-30T17:58:57.792Z,99293.56
2019-01-30T18:01:30.007Z,99301.46
2019-01-30T18:04:00.422Z,99298.05
2019-01-30T18:06:31.548Z,99306.03
2019-01-30T18:09:02.253Z,99293.25
2019-01-30T18:11:32.581Z,99299.83
2019-01-30T18:14:03.722Z,99300.92
2019-01-30T18:16:34.176Z,99298.33
2019-01-30T18:19:04.944Z,99299.64
2019-01-30T18:21:38.557Z,99297.95
2019-01-30T18:24:10.997Z,99295.31
2019-01-30T18:26:41.722Z,99296.73
2019-01-30T18:29:12.227Z,99303.59
2019-01-30T18:31:42.731Z,99310.69
2019-01-30T18:34:13.047Z,99293.67
2019-01-30T18:36:43.477Z,99297.73
2019-01-30T18:39:16.567Z,99300.72
2019-01-30T18:41:47.038Z,99295.47
2019-01-30T18:44:17.773Z,99297.34
2019-01-30T18:46:48.453Z,99297.16
2019-01-30T18:49:19.638Z,99295.84
2019-01-30T18:51:51.042Z,99283.20
2019-01-30T18:54:21.580Z,99292.59
2019-01-30T18:56:55.181Z,99297.95
2019-01-30T18:59:26.295Z,99289.59
2019-01-30T19:01:57.168Z,99293.45
2019-01-30T19:04:28.019Z,99295.42
2019-01-30T19:06:58.546Z,99286.39
2019-01-30T19:09:31.383Z,99289.36
2019-01-30T19:12:01.611Z,99292.37
2019-01-30T19:14:32.457Z,99299.55
2019-01-30T19:17:13.439Z,99288.88
2019-01-30T19:19:46.446Z,99288.74
2019-01-30T19:22:16.946Z,99291.98
2019-01-30T19:24:47.485Z,99300.39
2019-01-30T19:27:17.718Z,99290.06
2019-01-30T19:29:48.290Z,99294.00
2019-01-30T19:32:20.841Z,99292.02
2019-01-30T19:34:51.931Z,99290.80
2019-01-30T19:37:22.337Z,99294.18
2019-01-30T19:39:53.335Z,99289.95
2019-01-30T19:42:24.031Z,99294.27
2019-01-30T19:44:54.556Z,99289.05
2019-01-30T19:47:24.938Z,99288.67
2019-01-30T19:49:55.255Z,99291.68
2019-01-30T19:52:25.464Z,99291.13
2019-01-30T19:54:56.231Z,99289.34
2019-01-30T19:57:28.088Z,99280.14
2019-01-30T20:00:02.229Z,99287.18
2019-01-30T20:02:32.456Z,99288.31
2019-01-30T20:05:02.740Z,99280.47
2019-01-30T20:07:33.154Z,99274.45
2019-01-30T20:10:03.636Z,99286.06
2019-01-30T20:12:40.749Z,99280.56
2019-01-30T20:15:11.011Z,99284.37
2019-01-30T20:17:41.503Z,99280.47
2019-01-30T20:20:17.486Z,99275.81
2019-01-30T20:22:49.369Z,99286.20
2019-01-30T20:25:22.002Z,99279.34
2019-01-30T20:27:52.840Z,99278.72
2019-01-30T20:30:23.310Z,99275.15
2019-01-30T20:32:53.631Z,99272.53
2019-01-30T20:35:24.387Z,99281.22
2019-01-30T20:37:55.087Z,99271.59
2019-01-30T20:40:26.964Z,99270.47
2019-01-30T20:42:58.616Z,99273.72
2019-01-30T20:45:33.742Z,99269.39
2019-01-30T20:48:01.320Z,99272.41
2019-01-30T20:50:31.807Z,99263.00
2019-01-30T20:53:03.317Z,99264.62
2019-01-30T20:55:33.670Z,99260.39
2019-01-30T20:58:05.073Z,99263.22
2019-01-30T21:00:37.420Z,99264.70
2019-01-30T21:03:08.716Z,99252.91
2019-01-30T21:05:44.852Z,99255.08
2019-01-30T21:08:14.704Z,99251.11
2019-01-30T21:10:45.705Z,99252.66
2019-01-30T21:13:16.362Z,99247.88
2019-01-30T21:15:46.688Z,99260.80
2019-01-30T21:18:18.252Z,99256.31
2019-01-30T21:20:48.770Z,99266.06
2019-01-30T21:23:19.186Z,99269.41
2019-01-30T21:25:50.732Z,99270.00
2019-01-30T21:28:20.971Z,99271.23
2019-01-30T21:30:51.261Z,99263.81
2019-01-30T21:33:21.683Z,99262.37
2019-01-30T21:35:52.137Z,99264.63
2019-01-30T21:38:22.795Z,99265.03
2019-01-30T21:40:53.076Z,99262.26
2019-01-30T21:43:23.672Z,99259.48
2019-01-30T21:45:56.327Z,99259.52
2019-01-30T21:48:27.472Z,99252.92
2019-01-30T21:50:57.789Z,99262.23
2019-01-30T21:53:28.578Z,99264.36
2019-01-30T21:55:58.871Z,99257.23
2019-01-30T21:58:30.625Z,99256.80
2019-01-30T22:01:01.325Z,99258.29
2019-01-30T22:03:31.513Z,99253.33
2019-01-30T22:06:01.850Z,99258.67
2019-01-30T22:08:35.832Z,99252.98
2019-01-30T22:11:05.420Z,99256.31
2019-01-30T22:13:35.708Z,99245.97
2019-01-30T22:16:06.069Z,99252.55
2019-01-30T22:18:36.344Z,99243.48
2019-01-30T22:21:08.828Z,99248.56
2019-01-30T22:23:40.385Z,99244.60
2019-01-30T22:26:11.017Z,99239.92
2019-01-30T22:28:41.707Z,99225.77
2019-01-30T22:31:12.186Z,99234.27
2019-01-30T22:33:42.603Z,99231.67
2019-01-30T22:36:12.908Z,99222.47
2019-01-30T22:38:43.318Z,99219.64
2019-01-30T22:41:13.630Z,99219.82
2019-01-30T22:43:44.179Z,99226.27
2019-01-30T22:46:14.645Z,99224.69
2019-01-30T22:48:44.878Z,99227.86
2019-01-30T22:51:15.325Z,99227.00
2019-01-30T22:53:45.701Z,99219.40
2019-01-30T22:56:16.339Z,99222.31
2019-01-30T22:58:50.253Z,99216.54
2019-01-30T23:01:51.546Z,99224.66
2019-01-30T23:04:55.764Z,99224.02
2019-01-30T23:07:50.289Z,99227.58
2019-01-30T23:11:13.701Z,99224.40
2019-01-30T23:14:21.252Z,99221.77
2019-01-30T23:17:34.251Z,99219.47
2019-01-30T23:20:28.837Z,99226.65
2019-01-30T23:23:46.101Z,99214.33
2019-01-30T23:26:30.196Z,99211.61
2019-01-30T23:29:37.362Z,99209.55
2019-01-30T23:32:44.594Z,99214.52
2019-01-30T23:35:44.075Z,99210.22
2019-01-30T23:39:07.141Z,99212.22
2019-01-30T23:42:39.259Z,99206.59
2019-01-30T23:45:22.192Z,99203.41
2019-01-30T23:48:29.918Z,99209.17
2019-01-30T23:51:44.225Z,99199.52
2019-01-30T23:54:49.427Z,99202.94
2019-01-30T23:57:30.899Z,99199.56
